createdAt,value
2022-11-09T00:02:05.664Z,18.51
2022-11-09T00:04:38.732Z,18.12
2022-11-09T00:07:08.152Z,18.01
2022-11-09T00:09:38.064Z,18.30
2022-11-09T00:12:06.007Z,18.30
2022-11-09T00:14:32.455Z,18.37
2022-11-09T00:16:58.921Z,18.30
2022-11-09T00:19:26.043Z,18.25
2022-11-09T00:21:53.161Z,18.14
2022-11-09T00:24:19.583Z,18.41
2022-11-09T00:26:46.082Z,18.36
2022-11-09T00:29:12.545Z,18.61
2022-11-09T00:31:39.006Z,18.55
2022-11-09T00:34:05.439Z,18.59
2022-11-09T00:36:31.835Z,18.67
2022-11-09T00:39:00.610Z,18.56
2022-11-09T00:41:27.735Z,18.63
2022-11-09T00:43:54.373Z,18.52
2022-11-09T00:46:21.615Z,18.65
2022-11-09T00:48:48.247Z,18.54
2022-11-09T00:51:14.759Z,18.82
2022-11-09T00:53:42.587Z,18.72
2022-11-09T00:56:12.079Z,18.73
2022-11-09T00:58:39.381Z,18.74
2022-11-09T01:01:14.411Z,18.58
2022-11-09T01:03:41.166Z,18.59
2022-11-09T01:06:08.333Z,18.58
2022-11-09T01:08:36.104Z,18.59
2022-11-09T01:11:07.301Z,18.75
2022-11-09T01:13:34.554Z,18.74
2022-11-09T01:16:06.224Z,18.68
2022-11-09T01:18:33.099Z,18.65
2022-11-09T01:20:59.503Z,18.61
2022-11-09T01:23:25.961Z,18.66
2022-11-09T01:25:59.458Z,18.57
2022-11-09T01:28:26.106Z,18.52
2022-11-09T01:30:52.880Z,18.55
2022-11-09T01:33:19.580Z,18.35
2022-11-09T01:35:46.314Z,18.48
2022-11-09T01:38:12.783Z,18.51
2022-11-09T01:40:40.292Z,18.49
2022-11-09T01:43:19.182Z,18.42
2022-11-09T01:45:50.038Z,18.02
2022-11-09T01:48:37.581Z,18.21
2022-11-09T01:51:37.615Z,18.25
2022-11-09T01:54:12.900Z,17.95
2022-11-09T01:56:40.060Z,17.92
2022-11-09T01:59:11.739Z,18.22
2022-11-09T02:01:38.437Z,18.27
2022-11-09T02:04:13.693Z,18.25
2022-11-09T02:06:40.699Z,18.19
2022-11-09T02:09:12.594Z,18.13
2022-11-09T02:11:39.190Z,18.10
2022-11-09T02:14:07.260Z,18.17
2022-11-09T02:16:34.012Z,18.20
2022-11-09T02:19:01.130Z,18.21
2022-11-09T02:21:30.879Z,18.03
2022-11-09T02:23:57.906Z,18.10
2022-11-09T02:26:49.498Z,17.86
2022-11-09T02:29:20.657Z,17.87
2022-11-09T02:31:52.397Z,17.83
2022-11-09T02:34:20.299Z,17.29
2022-11-09T02:36:47.381Z,17.74
2022-11-09T02:39:16.933Z,18.00
2022-11-09T02:41:48.372Z,18.24
2022-11-09T02:44:16.585Z,17.99
2022-11-09T02:46:43.144Z,18.02
2022-11-09T02:49:09.573Z,17.80
2022-11-09T02:51:36.198Z,17.64
2022-11-09T02:54:03.409Z,17.84
2022-11-09T02:56:29.837Z,17.74
2022-11-09T02:58:56.359Z,17.85
2022-11-09T03:01:23.111Z,18.19
2022-11-09T03:03:49.679Z,18.15
2022-11-09T03:06:16.327Z,17.80
2022-11-09T03:08:42.792Z,17.95
2022-11-09T03:11:09.224Z,18.12
2022-11-09T03:13:36.140Z,18.00
2022-11-09T03:16:08.520Z,18.15
2022-11-09T03:18:34.995Z,18.20
2022-11-09T03:21:06.157Z,18.38
2022-11-09T03:23:33.086Z,18.35
2022-11-09T03:25:59.560Z,18.50
2022-11-09T03:28:26.095Z,18.37
2022-11-09T03:30:52.643Z,18.17
2022-11-09T03:33:19.517Z,18.39
2022-11-09T03:35:46.235Z,18.45
2022-11-09T03:38:13.403Z,18.22
2022-11-09T03:40:39.939Z,18.27
2022-11-09T03:43:06.409Z,17.74
2022-11-09T03:45:33.081Z,18.34
2022-11-09T03:48:02.327Z,18.21
2022-11-09T03:50:31.395Z,18.20
2022-11-09T03:52:59.861Z,18.09
2022-11-09T03:55:27.371Z,17.98
2022-11-09T03:57:54.339Z,18.36
2022-11-09T04:00:22.616Z,18.18
2022-11-09T04:02:49.092Z,18.39
2022-11-09T04:05:15.653Z,18.16
2022-11-09T04:07:48.818Z,18.48
2022-11-09T04:10:15.552Z,18.41
2022-11-09T04:12:42.013Z,18.43
2022-11-09T04:15:09.229Z,18.35
2022-11-09T04:17:35.843Z,18.34
2022-11-09T04:20:02.280Z,18.45
2022-11-09T04:22:28.714Z,18.22
2022-11-09T04:24:55.135Z,18.19
2022-11-09T04:27:21.679Z,18.55
2022-11-09T04:29:48.111Z,18.52
2022-11-09T04:32:14.787Z,18.48
2022-11-09T04:34:41.446Z,18.17
2022-11-09T04:37:09.242Z,18.54
2022-11-09T04:39:35.955Z,18.39
2022-11-09T04:42:02.624Z,18.47
2022-11-09T04:44:31.988Z,18.25
2022-11-09T04:46:58.393Z,18.23
2022-11-09T04:49:24.979Z,18.34
2022-11-09T04:51:51.419Z,17.86
2022-11-09T04:54:17.855Z,18.01
2022-11-09T04:56:44.342Z,18.34
2022-11-09T04:59:10.795Z,18.08
2022-11-09T05:01:37.276Z,17.80
2022-11-09T05:04:03.850Z,18.03
2022-11-09T05:06:33.106Z,18.02
2022-11-09T05:09:03.485Z,17.78
2022-11-09T05:11:31.031Z,17.70
2022-11-09T05:13:57.759Z,17.82
2022-11-09T05:16:24.602Z,17.57
2022-11-09T05:18:52.068Z,17.44
2022-11-09T05:21:18.821Z,17.36
2022-11-09T05:24:00.849Z,17.30
2022-11-09T05:26:38.781Z,17.67
2022-11-09T05:29:07.719Z,17.36
2022-11-09T05:31:34.705Z,17.36
2022-11-09T05:34:02.006Z,17.54
2022-11-09T05:36:30.409Z,17.44
2022-11-09T05:38:58.031Z,17.55
2022-11-09T05:41:24.643Z,17.36
2022-11-09T05:43:51.163Z,17.75
2022-11-09T05:46:18.628Z,17.60
2022-11-09T05:48:46.027Z,17.55
2022-11-09T05:51:50.293Z,17.78
2022-11-09T05:54:16.693Z,17.46
2022-11-09T05:56:43.165Z,17.52
2022-11-09T05:59:09.696Z,17.59
2022-11-09T06:01:36.117Z,17.19
2022-11-09T06:04:02.659Z,17.39
2022-11-09T06:06:29.901Z,17.31
2022-11-09T06:08:56.432Z,17.40
2022-11-09T06:11:24.274Z,17.50
2022-11-09T06:13:52.840Z,17.06
2022-11-09T06:16:19.391Z,17.31
2022-11-09T06:18:45.889Z,17.52
2022-11-09T06:21:12.648Z,17.51
2022-11-09T06:23:39.200Z,17.75
2022-11-09T06:26:09.534Z,17.49
2022-11-09T06:28:37.705Z,17.33
2022-11-09T06:31:06.919Z,17.68
2022-11-09T06:33:35.582Z,17.53
2022-11-09T06:36:03.011Z,17.27
2022-11-09T06:38:29.876Z,17.09
2022-11-09T06:40:59.264Z,17.23
2022-11-09T06:43:26.623Z,17.43
2022-11-09T06:45:53.922Z,17.17
2022-11-09T06:48:21.219Z,17.36
2022-11-09T06:50:47.866Z,17.31
2022-11-09T06:53:15.953Z,17.39
2022-11-09T06:55:47.385Z,17.16
2022-11-09T06:58:16.540Z,17.60
2022-11-09T07:00:44.085Z,17.49
2022-11-09T07:03:15.492Z,17.27
2022-11-09T07:05:41.976Z,17.23
2022-11-09T07:08:08.423Z,17.38
2022-11-09T07:10:34.948Z,17.12
2022-11-09T07:13:03.208Z,17.03
2022-11-09T07:15:29.660Z,17.14
2022-11-09T07:18:00.299Z,17.03
2022-11-09T07:20:27.542Z,17.39
2022-11-09T07:22:54.137Z,17.72
2022-11-09T07:25:21.006Z,17.64
2022-11-09T07:27:47.527Z,17.70
2022-11-09T07:30:14.508Z,17.35
2022-11-09T07:35:28.712Z,17.36
2022-11-09T07:37:59.926Z,17.26
2022-11-09T07:40:26.339Z,17.36
2022-11-09T07:42:52.814Z,17.51
2022-11-09T07:45:19.234Z,17.76
2022-11-09T07:47:45.646Z,17.82
2022-11-09T07:50:12.068Z,17.62
2022-11-09T07:52:38.481Z,17.68
2022-11-09T07:55:05.378Z,17.25
2022-11-09T07:57:31.823Z,17.42
2022-11-09T07:59:59.135Z,17.46
2022-11-09T08:02:25.608Z,17.85
2022-11-09T08:04:52.139Z,17.82
2022-11-09T08:07:18.570Z,17.62
2022-11-09T08:09:45.203Z,17.37
2022-11-09T08:12:11.617Z,17.65
2022-11-09T08:14:38.098Z,17.85
2022-11-09T08:17:04.514Z,18.65
2022-11-09T08:19:30.962Z,19.65
2022-11-09T08:21:57.862Z,20.22
2022-11-09T08:24:24.391Z,19.92
2022-11-09T08:26:50.838Z,19.91
2022-11-09T08:29:17.458Z,19.87
2022-11-09T08:31:43.998Z,20.04
2022-11-09T08:34:12.961Z,20.02
2022-11-09T08:36:39.479Z,20.34
2022-11-09T08:39:06.024Z,20.04
2022-11-09T08:41:33.744Z,19.93
2022-11-09T08:44:00.202Z,19.72
2022-11-09T08:46:26.635Z,19.63
2022-11-09T08:48:53.065Z,19.56
2022-11-09T08:51:19.593Z,19.36
2022-11-09T08:53:46.042Z,18.90
2022-11-09T08:56:12.925Z,19.05
2022-11-09T08:58:39.737Z,18.74
2022-11-09T09:01:12.263Z,19.16
2022-11-09T09:03:41.978Z,18.95
2022-11-09T09:06:08.833Z,18.99
2022-11-09T09:08:35.364Z,19.31
2022-11-09T09:11:06.047Z,19.05
2022-11-09T09:13:35.037Z,18.93
2022-11-09T09:16:10.942Z,18.35
2022-11-09T09:18:37.601Z,18.66
2022-11-09T09:21:08.648Z,18.87
2022-11-09T09:23:35.465Z,18.78
2022-11-09T09:26:01.917Z,18.99
2022-11-09T09:28:28.464Z,18.90
2022-11-09T09:30:58.626Z,18.83
2022-11-09T09:33:25.588Z,18.39
2022-11-09T09:35:52.368Z,18.27
2022-11-09T09:38:19.032Z,18.74
2022-11-09T09:41:06.737Z,18.56
2022-11-09T09:43:43.226Z,18.77
2022-11-09T09:46:27.951Z,18.52
2022-11-09T09:49:03.728Z,19.04
2022-11-09T09:51:43.019Z,18.54
2022-11-09T09:54:18.075Z,18.76
2022-11-09T09:56:46.849Z,18.93
2022-11-09T09:59:27.044Z,19.47
2022-11-09T10:01:53.537Z,19.48
2022-11-09T10:04:22.547Z,19.76
2022-11-09T10:07:07.623Z,19.55
2022-11-09T10:09:55.232Z,19.98
2022-11-09T10:13:11.241Z,19.54
2022-11-09T10:15:54.389Z,19.74
2022-11-09T10:18:38.032Z,19.56
2022-11-09T10:21:44.005Z,19.65
2022-11-09T10:24:31.584Z,18.77
2022-11-09T10:27:00.073Z,19.33
2022-11-09T10:29:37.668Z,18.98
2022-11-09T10:32:24.117Z,19.42
2022-11-09T10:35:02.741Z,19.56
2022-11-09T10:37:38.882Z,19.87
2022-11-09T10:40:08.007Z,19.82
2022-11-09T10:42:34.780Z,19.64
2022-11-09T10:45:12.229Z,19.85
2022-11-09T10:47:49.954Z,19.90
2022-11-09T10:50:34.648Z,20.21
2022-11-09T10:53:19.703Z,20.24
2022-11-09T10:55:50.172Z,20.09
2022-11-09T10:58:25.346Z,19.74
2022-11-09T11:01:17.685Z,19.13
2022-11-09T11:03:45.617Z,19.04
2022-11-09T11:06:25.925Z,18.43
2022-11-09T11:09:13.846Z,18.81
2022-11-09T11:11:40.642Z,18.50
2022-11-09T11:14:26.895Z,17.64
2022-11-09T11:16:53.882Z,16.97
2022-11-09T11:19:37.035Z,17.67
2022-11-09T11:22:12.553Z,17.72
2022-11-09T11:24:51.391Z,17.06
2022-11-09T11:27:43.205Z,16.40
2022-11-09T11:30:36.139Z,15.98
2022-11-09T11:33:12.343Z,16.91
2022-11-09T11:35:41.989Z,16.39
2022-11-09T11:38:14.482Z,16.09
2022-11-09T11:40:45.748Z,16.42
2022-11-09T11:43:18.570Z,16.17
2022-11-09T11:46:02.601Z,16.72
2022-11-09T11:48:49.621Z,16.80
2022-11-09T11:51:46.229Z,16.16
2022-11-09T11:54:34.475Z,17.03
2022-11-09T11:57:19.894Z,17.09
2022-11-09T11:59:54.992Z,17.30
2022-11-09T12:02:57.331Z,16.90
2022-11-09T12:06:02.626Z,17.03
2022-11-09T12:08:36.608Z,17.27
2022-11-09T12:11:12.444Z,16.72
2022-11-09T12:14:03.861Z,16.89
2022-11-09T12:16:39.767Z,17.10
2022-11-09T12:19:36.677Z,16.54
2022-11-09T12:22:13.194Z,17.51
2022-11-09T12:24:56.841Z,17.58
2022-11-09T12:27:44.507Z,17.03
2022-11-09T12:30:30.859Z,16.89
2022-11-09T12:33:03.538Z,16.44
2022-11-09T12:35:30.416Z,16.76
2022-11-09T12:38:12.754Z,16.99
2022-11-09T12:40:52.080Z,17.26
2022-11-09T12:43:24.100Z,17.52
2022-11-09T12:45:52.847Z,16.80
2022-11-09T12:48:26.736Z,16.49
2022-11-09T12:50:53.780Z,17.50
2022-11-09T12:53:24.563Z,17.25
2022-11-09T12:56:17.258Z,16.82
2022-11-09T12:58:44.323Z,17.36
2022-11-09T13:01:14.473Z,17.08
2022-11-09T13:03:57.031Z,17.34
2022-11-09T13:06:27.805Z,16.75
2022-11-09T13:09:15.883Z,16.34
2022-11-09T13:11:47.299Z,16.91
2022-11-09T13:14:22.982Z,16.98
2022-11-09T13:16:51.176Z,17.28
2022-11-09T13:19:41.661Z,17.52
2022-11-09T13:24:52.221Z,17.54
2022-11-09T13:27:41.444Z,17.18
2022-11-09T13:30:30.735Z,16.78
2022-11-09T13:33:06.225Z,16.56
2022-11-09T13:35:42.056Z,17.00
2022-11-09T13:38:18.607Z,17.32
2022-11-09T13:40:57.194Z,17.39
2022-11-09T13:43:38.899Z,16.95
2022-11-09T13:46:14.416Z,16.71
2022-11-09T13:48:48.837Z,16.35
2022-11-09T13:51:19.363Z,16.16
2022-11-09T13:53:57.758Z,16.75
2022-11-09T13:56:30.122Z,16.47
2022-11-09T13:59:03.486Z,16.39
2022-11-09T14:01:45.296Z,16.85
2022-11-09T14:04:37.718Z,16.44
2022-11-09T14:07:25.241Z,16.53
2022-11-09T14:10:01.896Z,16.28
2022-11-09T14:12:46.769Z,15.86
2022-11-09T14:15:13.154Z,15.64
2022-11-09T14:17:52.580Z,16.32
2022-11-09T14:20:43.150Z,16.71
2022-11-09T14:23:18.866Z,16.60
2022-11-09T14:25:46.108Z,16.42
2022-11-09T14:28:30.984Z,16.72
2022-11-09T14:30:57.655Z,16.52
2022-11-09T14:33:26.842Z,16.77
2022-11-09T14:35:57.730Z,16.63
2022-11-09T14:38:28.057Z,16.51
2022-11-09T14:40:55.512Z,16.32
2022-11-09T14:43:44.779Z,16.49
2022-11-09T14:46:20.785Z,16.32
2022-11-09T14:48:59.183Z,16.04
2022-11-09T14:51:35.464Z,15.62
2022-11-09T14:54:05.671Z,15.80
2022-11-09T14:56:33.897Z,15.18
2022-11-09T14:59:02.156Z,14.90
2022-11-09T15:01:28.826Z,14.84
2022-11-09T15:04:27.523Z,14.82
2022-11-09T15:07:00.695Z,15.50
2022-11-09T15:09:41.759Z,15.30
2022-11-09T15:12:19.481Z,15.53
2022-11-09T15:14:58.620Z,15.31
2022-11-09T15:17:32.290Z,15.53
2022-11-09T15:20:20.579Z,15.43
2022-11-09T15:22:50.179Z,15.70
2022-11-09T15:25:25.773Z,15.77
2022-11-09T15:28:21.413Z,15.78
2022-11-09T15:30:54.135Z,15.75
2022-11-09T15:33:26.634Z,15.71
2022-11-09T15:35:56.124Z,15.68
2022-11-09T15:38:39.137Z,15.64
2022-11-09T15:41:25.295Z,15.57
2022-11-09T15:43:52.107Z,15.57
2022-11-09T15:46:27.467Z,15.53
2022-11-09T15:48:57.956Z,15.46
2022-11-09T15:51:24.507Z,15.46
2022-11-09T15:53:51.008Z,15.28
2022-11-09T15:56:23.244Z,15.25
2022-11-09T15:58:52.336Z,15.26
2022-11-09T16:01:19.290Z,15.09
2022-11-09T16:03:45.807Z,15.22
2022-11-09T16:06:18.948Z,15.05
2022-11-09T16:08:49.720Z,15.04
2022-11-09T16:11:16.278Z,15.03
2022-11-09T16:13:42.718Z,15.14
2022-11-09T16:16:11.575Z,15.28
2022-11-09T16:18:38.385Z,15.22
2022-11-09T16:21:13.526Z,15.26
2022-11-09T16:23:40.261Z,15.25
2022-11-09T16:26:14.696Z,15.23
2022-11-09T16:28:41.541Z,15.18
2022-11-09T16:31:08.015Z,15.21
2022-11-09T16:33:35.069Z,15.14
2022-11-09T16:36:05.791Z,15.08
2022-11-09T16:38:38.919Z,15.07
2022-11-09T16:41:05.949Z,15.09
2022-11-09T16:43:36.294Z,15.00
2022-11-09T16:46:02.825Z,15.00
2022-11-09T16:48:32.784Z,14.87
2022-11-09T16:50:59.416Z,14.87
2022-11-09T16:53:27.243Z,14.93
2022-11-09T16:55:54.474Z,14.90
2022-11-09T16:58:21.310Z,14.84
2022-11-09T17:01:09.684Z,14.88
2022-11-09T17:03:36.270Z,14.85
2022-11-09T17:06:03.463Z,14.67
2022-11-09T17:08:30.156Z,14.77
2022-11-09T17:10:56.607Z,14.85
2022-11-09T17:13:23.048Z,14.86
2022-11-09T17:15:52.550Z,14.85
2022-11-09T17:18:19.378Z,14.83
2022-11-09T17:20:48.772Z,14.82
2022-11-09T17:23:18.145Z,14.80
2022-11-09T17:25:58.958Z,14.27
2022-11-09T17:28:26.162Z,14.67
2022-11-09T17:30:52.694Z,14.64
2022-11-09T17:33:19.775Z,14.68
2022-11-09T17:35:46.297Z,14.69
2022-11-09T17:38:12.805Z,14.70
2022-11-09T17:40:39.381Z,14.78
2022-11-09T17:43:05.976Z,14.76
2022-11-09T17:45:34.648Z,14.77
2022-11-09T17:48:01.720Z,14.76
2022-11-09T17:50:28.151Z,14.54
2022-11-09T17:52:54.940Z,14.51
2022-11-09T17:55:21.434Z,14.80
2022-11-09T17:57:48.599Z,14.69
2022-11-09T18:00:15.593Z,14.70
2022-11-09T18:02:42.121Z,14.27
2022-11-09T18:05:09.066Z,14.73
2022-11-09T18:07:35.476Z,14.76
2022-11-09T18:10:01.906Z,14.88
2022-11-09T18:12:28.453Z,14.77
2022-11-09T18:14:54.936Z,14.93
2022-11-09T18:17:21.414Z,14.94
2022-11-09T18:19:48.377Z,14.97
2022-11-09T18:22:14.801Z,14.94
2022-11-09T18:24:41.325Z,14.91
2022-11-09T18:27:07.767Z,14.90
2022-11-09T18:29:34.208Z,14.90
2022-11-09T18:32:00.671Z,14.89
2022-11-09T18:34:27.153Z,14.89
2022-11-09T18:36:53.896Z,14.90
2022-11-09T18:39:20.367Z,14.91
2022-11-09T18:41:46.857Z,14.77
2022-11-09T18:44:13.418Z,14.80
2022-11-09T18:46:39.880Z,14.88
2022-11-09T18:49:10.114Z,14.91
2022-11-09T18:51:39.634Z,14.96
2022-11-09T18:54:06.060Z,14.90
2022-11-09T18:56:32.593Z,14.82
2022-11-09T18:58:59.917Z,14.76
2022-11-09T19:01:29.680Z,14.84
2022-11-09T19:03:59.818Z,14.73
2022-11-09T19:06:26.972Z,14.84
2022-11-09T19:09:12.074Z,14.73
2022-11-09T19:11:38.580Z,14.84
2022-11-09T19:14:05.038Z,14.85
2022-11-09T19:16:31.570Z,14.85
2022-11-09T19:18:58.261Z,14.74
2022-11-09T19:21:24.749Z,14.94
2022-11-09T19:23:51.956Z,15.02
2022-11-09T19:26:19.050Z,14.98
2022-11-09T19:28:45.554Z,14.95
2022-11-09T19:31:14.343Z,14.98
2022-11-09T19:33:40.789Z,15.00
2022-11-09T19:36:29.285Z,14.81
2022-11-09T19:39:05.483Z,14.97
2022-11-09T19:41:32.028Z,14.98
2022-11-09T19:43:59.307Z,14.94
2022-11-09T19:46:31.022Z,14.89
2022-11-09T19:48:57.967Z,14.81
2022-11-09T19:51:24.504Z,14.80
2022-11-09T19:53:52.813Z,14.49
2022-11-09T19:56:20.815Z,14.68
2022-11-09T19:58:51.788Z,14.62
2022-11-09T20:01:18.896Z,14.70
2022-11-09T20:03:48.722Z,14.66
2022-11-09T20:06:15.197Z,14.61
2022-11-09T20:08:41.618Z,14.75
2022-11-09T20:11:10.963Z,14.74
2022-11-09T20:13:38.397Z,14.39
2022-11-09T20:16:07.061Z,14.60
2022-11-09T20:18:38.575Z,14.55
2022-11-09T20:21:08.464Z,14.69
2022-11-09T20:23:34.895Z,14.73
2022-11-09T20:26:09.267Z,14.68
2022-11-09T20:28:36.132Z,14.75
2022-11-09T20:31:14.502Z,14.71
2022-11-09T20:33:41.259Z,14.77
2022-11-09T20:36:08.238Z,14.67
2022-11-09T20:38:34.844Z,14.52
2022-11-09T20:41:03.991Z,14.58
2022-11-09T20:43:30.893Z,14.64
2022-11-09T20:46:03.563Z,14.17
2022-11-09T20:48:52.989Z,14.68
2022-11-09T20:51:19.421Z,14.48
2022-11-09T20:53:47.128Z,14.15
2022-11-09T20:56:14.419Z,14.56
2022-11-09T20:58:41.448Z,14.69
2022-11-09T21:01:11.640Z,14.69
2022-11-09T21:03:38.750Z,14.50
2022-11-09T21:06:06.987Z,14.54
2022-11-09T21:08:34.105Z,14.88
2022-11-09T21:11:01.943Z,14.52
2022-11-09T21:13:28.905Z,14.90
2022-11-09T21:15:55.454Z,14.58
2022-11-09T21:18:22.529Z,14.79
2022-11-09T21:20:49.291Z,14.77
2022-11-09T21:23:15.709Z,14.98
2022-11-09T21:26:02.248Z,15.04
2022-11-09T21:28:47.639Z,15.14
2022-11-09T21:31:14.380Z,15.16
2022-11-09T21:33:41.269Z,15.23
2022-11-09T21:36:14.080Z,15.26
2022-11-09T21:38:40.533Z,15.27
2022-11-09T21:41:27.047Z,15.29
2022-11-09T21:43:56.546Z,15.30
2022-11-09T21:46:24.182Z,15.16
2022-11-09T21:48:50.977Z,15.31
2022-11-09T21:51:17.507Z,15.33
2022-11-09T21:53:43.946Z,14.84
2022-11-09T21:56:11.208Z,15.13
2022-11-09T21:58:37.655Z,15.32
2022-11-09T22:01:09.431Z,14.95
2022-11-09T22:03:37.413Z,15.22
2022-11-09T22:06:04.378Z,15.33
2022-11-09T22:08:31.072Z,15.18
2022-11-09T22:11:08.931Z,14.93
2022-11-09T22:13:54.662Z,14.88
2022-11-09T22:16:23.374Z,15.28
2022-11-09T22:19:08.692Z,15.13
2022-11-09T22:21:35.417Z,15.28
2022-11-09T22:24:02.910Z,14.70
2022-11-09T22:26:31.555Z,15.10
2022-11-09T22:28:58.481Z,15.14
2022-11-09T22:31:25.697Z,14.99
2022-11-09T22:33:52.976Z,14.50
2022-11-09T22:36:20.365Z,15.17
2022-11-09T22:38:47.350Z,15.36
2022-11-09T22:41:15.203Z,15.08
2022-11-09T22:43:43.556Z,14.79
2022-11-09T22:46:17.253Z,14.97
2022-11-09T22:48:44.748Z,15.32
2022-11-09T22:51:12.903Z,14.62
2022-11-09T22:53:39.718Z,14.97
2022-11-09T22:56:06.523Z,15.07
2022-11-09T22:58:33.049Z,14.94
2022-11-09T23:01:08.804Z,14.59
2022-11-09T23:03:35.796Z,14.86
2022-11-09T23:06:22.012Z,14.68
2022-11-09T23:08:48.816Z,15.11
2022-11-09T23:11:18.244Z,15.10
2022-11-09T23:13:47.851Z,14.48
2022-11-09T23:16:14.274Z,14.96
2022-11-09T23:18:56.245Z,14.92
2022-11-09T23:21:33.407Z,14.77
2022-11-09T23:24:03.017Z,14.24
2022-11-09T23:26:30.112Z,14.89
2022-11-09T23:28:56.844Z,14.90
2022-11-09T23:31:24.406Z,14.90
2022-11-09T23:33:54.398Z,15.02
2022-11-09T23:36:22.356Z,14.44
2022-11-09T23:38:49.313Z,14.87
2022-11-09T23:41:17.002Z,14.62
2022-11-09T23:43:48.648Z,14.56
2022-11-09T23:46:16.874Z,14.43
2022-11-09T23:48:43.422Z,14.37
2022-11-09T23:51:10.577Z,15.02
2022-11-09T23:53:37.627Z,14.72
2022-11-09T23:56:09.635Z,14.84
2022-11-09T23:58:36.382Z,14.23
